Startpagina
METAR-TAF:

METAR-TAF

Vliegvelden :

Vršac, Servië

breedte: 45-09N, lengte: 021-19E, hoogte: 83 m

Actueel weer

Dit bericht is 43 minuten geleden gemaakt, om 00:00 UTC
Wind 6 kt uit het zuidoosten
Temperatuur 4°C
Vochtigheid 81%
Druk 1013 hPa
Zicht 10 km of meer
geen wolken onder 1500 m en geen cumulonimbus

METAR: LYVR 220000Z 14006KT CAVOK 04/01 Q1013 NOSIG

Tijdstip: 01:43 (00:43 UTC)

Verwachting

Dit bericht is 1 uur en het 43 minuten geleden gemaakt, om 23:00 UTC
Verwachting geldig van 22 om 00 UTC tot 22 om 24 UTC
Wind 8 kt uit het zuidzuidoosten
Zicht 10 km of meer
Verspreide wolken op 4000 ft
Tijdelijke
van 22 om 04 UTC tot 22 om 09 UTC
Zicht: 5000 m
Gebroken wolken op 1500 ft
Gebroken wolken op 4000 ft
lichte regen, nevel
Wijzigt naar
van 22 om 07 UTC tot 22 om 09 UTC
Wind 15 kt uit het zuidoosten met uitschieters tot 30 kt

TAF: LYVR 212300Z 2200/2224 15008KT 9999 SCT040 TX06/2213Z TN02/2206Z TEMPO 2204/2209 5000 -RA BR BKN015 BKN040 BECMG 2207/2209 14015G30KT

Waarnemingen en weersverwachtingen van meer dan 4000 vliegvelden (METAR en TAF).

De beschikbare stations zijn de gele en rode punten op de kaart.

Ga met uw muis naar het station om de naam te zien.

Klik dan om waarnemingen en weersverwachtingen te zien.

kaart wijzigen: klik op de groene knoppen met een zwart kruis om in te zoomen, op de groene knop met een streepje om uit te zoomen of op de groene pijlen voor aangrenzende kaarten.


METAR-TAF: